Time;durP1;ratioP1;P1;durP2;ratioP2;P2;SDS_P1;SDS_P2;PMS_P1;PMS_P2;Temp;Humidity;BMP_temperature;BMP_pressure;BME280_temperature;BME280_humidity;BME280_pressure;Samples;Min_cycle;Max_cycle;Signal;HPM_P1;HPM_P2
2023/05/16 00:01:28;;;;;;;5.00;1.90;;;10.40;99.90;;;;;;5101458;28;20235;-72
2023/05/16 00:03:55;;;;;;;6.07;2.47;;;10.40;99.90;;;;;;5098045;28;20220;-71
2023/05/16 00:06:21;;;;;;;8.77;2.97;;;10.50;99.90;;;;;;5097572;28;20187;-72
2023/05/16 00:08:47;;;;;;;6.33;1.90;;;10.50;99.90;;;;;;5096886;28;20207;-71
2023/05/16 00:11:13;;;;;;;6.00;1.57;;;10.40;99.90;;;;;;5115293;28;20208;-71
2023/05/16 00:13:41;;;;;;;7.23;1.83;;;10.30;99.90;;;;;;5102559;28;20191;-71
2023/05/16 00:16:07;;;;;;;6.23;1.97;;;10.30;99.90;;;;;;5097698;28;20212;-71
2023/05/16 00:18:36;;;;;;;3.70;2.40;;;10.20;99.90;;;;;;5114963;28;20223;-71
2023/05/16 00:21:02;;;;;;;5.10;2.13;;;10.20;99.90;;;;;;5091928;28;20183;-71
2023/05/16 00:23:28;;;;;;;7.63;2.20;;;10.30;99.90;;;;;;5093741;28;20172;-72
2023/05/16 00:25:53;;;;;;;11.70;2.53;;;10.30;99.90;;;;;;5104734;28;20191;-71
2023/05/16 00:28:19;;;;;;;8.17;3.20;;;10.20;99.90;;;;;;5089345;28;20206;-71
2023/05/16 00:30:45;;;;;;;6.47;1.80;;;10.20;99.90;;;;;;5096862;28;20233;-71
2023/05/16 00:33:10;;;;;;;10.37;2.73;;;10.10;99.90;;;;;;5110950;28;20271;-71
2023/05/16 00:35:36;;;;;;;3.50;1.80;;;10.20;99.90;;;;;;5091906;28;20187;-71
2023/05/16 00:38:02;;;;;;;6.20;2.20;;;10.10;99.90;;;;;;5110248;28;20811;-71
2023/05/16 00:40:27;;;;;;;2.20;1.97;;;10.10;99.90;;;;;;5114608;28;20648;-72
2023/05/16 00:42:53;;;;;;;4.67;2.10;;;10.10;99.90;;;;;;5079379;28;20189;-72
2023/05/16 00:45:19;;;;;;;5.50;1.73;;;10.10;99.90;;;;;;5106044;28;20263;-72
2023/05/16 00:47:44;;;;;;;8.80;2.50;;;10.10;99.90;;;;;;5100730;28;20283;-71
2023/05/16 00:50:10;;;;;;;6.53;2.10;;;10.10;99.90;;;;;;5103344;28;20184;-71
2023/05/16 00:52:36;;;;;;;10.63;2.57;;;10.20;99.90;;;;;;5113158;28;20725;-72
2023/05/16 00:55:03;;;;;;;5.77;2.57;;;10.10;99.90;;;;;;5099668;28;20212;-72
2023/05/16 00:57:29;;;;;;;7.80;2.57;;;10.00;99.90;;;;;;5107830;28;20188;-71
2023/05/16 00:59:55;;;;;;;7.07;2.17;;;10.00;99.90;;;;;;5105855;28;20184;-71
2023/05/16 01:02:20;;;;;;;10.80;2.93;;;10.00;99.90;;;;;;5080394;28;20325;-72
2023/05/16 01:04:47;;;;;;;6.47;2.43;;;10.00;99.90;;;;;;5110833;28;20192;-72
2023/05/16 01:07:13;;;;;;;9.50;2.23;;;10.00;99.90;;;;;;5091455;28;20187;-72
2023/05/16 01:09:39;;;;;;;21.57;4.00;;;10.00;99.90;;;;;;5114079;28;20188;-71
2023/05/16 01:12:34;;;;;;;9.70;2.47;;;9.80;99.90;;;;;;5114434;28;20204;-71
2023/05/16 01:15:04;;;;;;;6.97;2.70;;;9.80;99.90;;;;;;5114210;28;20543;-71
2023/05/16 01:18:13;;;;;;;4.23;2.47;;;9.90;99.90;;;;;;5104560;28;20176;-71
2023/05/16 01:21:08;;;;;;;7.20;2.07;;;9.80;99.90;;;;;;5062161;28;20185;-71
2023/05/16 01:23:48;;;;;;;8.30;1.97;;;9.60;99.90;;;;;;5068080;28;20201;-71
2023/05/16 01:26:26;;;;;;;10.33;2.20;;;9.60;99.90;;;;;;5073796;28;20212;-71
2023/05/16 01:28:53;;;;;;;7.37;2.50;;;9.60;99.90;;;;;;5069585;28;20672;-71
2023/05/16 01:31:20;;;;;;;10.00;3.10;;;9.60;99.90;;;;;;5065794;28;20225;-71
2023/05/16 01:33:46;;;;;;;9.80;2.40;;;9.60;99.90;;;;;;5052906;28;20174;-72
2023/05/16 01:36:25;;;;;;;4.30;2.60;;;9.60;99.90;;;;;;5064212;28;20243;-72
2023/05/16 01:39:06;;;;;;;10.87;2.73;;;9.60;99.90;;;;;;5056614;28;20166;-72
2023/05/16 01:41:56;;;;;;;12.77;3.10;;;9.50;99.90;;;;;;5061305;28;20199;-71
2023/05/16 01:44:22;;;;;;;9.57;3.03;;;9.50;99.90;;;;;;5059661;28;20269;-71
2023/05/16 01:46:52;;;;;;;6.87;2.57;;;9.50;99.90;;;;;;5072305;28;20289;-72
2023/05/16 01:49:35;;;;;;;7.60;2.47;;;9.40;99.90;;;;;;5064020;28;20544;-72
2023/05/16 01:52:10;;;;;;;10.33;3.43;;;9.40;99.90;;;;;;5068632;28;20201;-72
2023/05/16 01:54:37;;;;;;;9.33;2.63;;;9.30;99.90;;;;;;5067132;28;20316;-72
2023/05/16 01:57:04;;;;;;;12.77;3.00;;;9.40;99.90;;;;;;5053367;28;20708;-71
2023/05/16 01:59:32;;;;;;;8.83;2.93;;;9.30;99.90;;;;;;5050960;28;20186;-72
2023/05/16 02:01:58;;;;;;;8.60;2.90;;;9.30;99.90;;;;;;5057154;28;20193;-72
2023/05/16 02:04:23;;;;;;;4.10;2.27;;;9.30;99.90;;;;;;5067731;28;20193;-71
2023/05/16 02:06:50;;;;;;;7.30;3.60;;;9.30;99.90;;;;;;5062283;28;20664;-72
2023/05/16 02:09:16;;;;;;;9.57;2.77;;;9.30;99.90;;;;;;5057506;28;20174;-71
2023/05/16 02:11:42;;;;;;;7.90;3.20;;;9.30;99.90;;;;;;5060756;28;20216;-71
2023/05/16 02:14:08;;;;;;;3.97;2.37;;;9.20;99.90;;;;;;5069940;28;20185;-71
2023/05/16 02:16:34;;;;;;;6.27;2.10;;;9.30;99.90;;;;;;5057854;28;20643;-71
2023/05/16 02:19:00;;;;;;;7.20;2.60;;;9.20;99.90;;;;;;5077149;28;20224;-71
2023/05/16 02:21:26;;;;;;;4.77;3.17;;;9.20;99.90;;;;;;5112544;28;20265;-71
2023/05/16 02:23:52;;;;;;;3.07;2.37;;;9.10;99.90;;;;;;5094246;28;20266;-72
2023/05/16 02:26:17;;;;;;;10.13;2.77;;;9.10;99.90;;;;;;5094410;28;20187;-73
2023/05/16 02:28:43;;;;;;;18.50;4.67;;;9.00;99.90;;;;;;5094734;28;20767;-71
2023/05/16 02:31:09;;;;;;;16.13;3.63;;;9.00;99.90;;;;;;5113056;28;20211;-71
2023/05/16 02:33:35;;;;;;;9.43;3.80;;;8.90;99.90;;;;;;5094870;28;20203;-71
2023/05/16 02:36:00;;;;;;;8.50;3.30;;;8.80;99.90;;;;;;5086705;28;20587;-71
2023/05/16 02:38:26;;;;;;;11.33;3.50;;;8.90;99.90;;;;;;5109040;28;20184;-72
2023/05/16 02:40:52;;;;;;;9.97;3.73;;;8.80;99.90;;;;;;5108268;28;20192;-72
2023/05/16 02:43:18;;;;;;;6.07;3.23;;;8.70;99.90;;;;;;5089669;28;20525;-72
2023/05/16 02:45:44;;;;;;;5.80;3.30;;;8.70;99.90;;;;;;5077771;28;20183;-72
2023/05/16 02:48:10;;;;;;;7.50;4.17;;;8.70;99.90;;;;;;5105228;28;20229;-72
2023/05/16 02:50:36;;;;;;;11.23;3.87;;;8.70;99.90;;;;;;5112840;28;20207;-71
2023/05/16 02:53:02;;;;;;;5.83;4.03;;;8.70;99.90;;;;;;5077724;28;20186;-71
2023/05/16 02:55:28;;;;;;;8.33;3.33;;;8.70;99.90;;;;;;5083211;28;20191;-72
2023/05/16 02:57:53;;;;;;;8.77;5.33;;;8.70;99.90;;;;;;5108562;28;20283;-72
2023/05/16 03:00:19;;;;;;;18.33;2.83;;;8.60;99.90;;;;;;5099701;28;20180;-71
2023/05/16 03:02:45;;;;;;;18.63;4.03;;;8.60;99.90;;;;;;5103206;28;20184;-72
2023/05/16 03:05:11;;;;;;;12.87;3.77;;;8.60;99.90;;;;;;5100378;28;20185;-72
2023/05/16 03:07:38;;;;;;;6.97;3.93;;;8.50;99.90;;;;;;5081717;28;20609;-72
2023/05/16 03:10:04;;;;;;;10.07;2.90;;;8.50;99.90;;;;;;5107102;28;20242;-72
2023/05/16 03:12:29;;;;;;;6.90;3.07;;;8.50;99.90;;;;;;5109907;28;20531;-72
2023/05/16 03:14:55;;;;;;;6.93;3.10;;;8.40;99.90;;;;;;5080787;28;20185;-72
2023/05/16 03:17:21;;;;;;;4.17;2.70;;;8.40;99.90;;;;;;5076764;28;20236;-71
2023/05/16 03:19:47;;;;;;;7.07;3.77;;;8.50;99.90;;;;;;5075661;28;20288;-72
2023/05/16 03:22:12;;;;;;;14.77;4.10;;;8.40;99.90;;;;;;5108791;28;20184;-72
2023/05/16 03:24:38;;;;;;;6.97;3.07;;;8.40;99.90;;;;;;5107108;28;20199;-71
2023/05/16 03:27:04;;;;;;;12.23;4.10;;;8.40;99.90;;;;;;5083266;28;20220;-72
2023/05/16 03:29:30;;;;;;;11.30;4.60;;;8.40;99.90;;;;;;5069426;28;20177;-71
2023/05/16 03:31:55;;;;;;;16.50;5.63;;;8.30;99.90;;;;;;5105948;28;20211;-71
2023/05/16 03:34:21;;;;;;;13.13;4.50;;;8.40;99.90;;;;;;5100658;28;20657;-71
2023/05/16 03:36:50;;;;;;;12.93;4.50;;;8.30;99.90;;;;;;5105490;28;20184;-71
2023/05/16 03:39:16;;;;;;;4.03;3.63;;;8.20;99.90;;;;;;5095215;28;20188;-71
2023/05/16 03:41:42;;;;;;;5.50;3.80;;;8.20;99.90;;;;;;5099750;28;20541;-71
2023/05/16 03:44:08;;;;;;;7.20;3.53;;;8.30;99.90;;;;;;5102214;28;20313;-71
2023/05/16 03:46:34;;;;;;;17.50;4.33;;;8.20;99.90;;;;;;5104330;28;20534;-71
2023/05/16 03:49:00;;;;;;;8.33;3.30;;;8.20;99.90;;;;;;5097580;28;20649;-71
2023/05/16 03:51:27;;;;;;;16.77;5.30;;;8.20;99.90;;;;;;5075030;28;20217;-71
2023/05/16 03:53:53;;;;;;;8.43;4.10;;;8.10;99.90;;;;;;5105834;28;20181;-72
2023/05/16 03:56:18;;;;;;;10.77;3.80;;;8.10;99.90;;;;;;5094565;28;20185;-71
2023/05/16 03:58:44;;;;;;;6.60;4.17;;;8.10;99.90;;;;;;5094485;28;20233;-71
2023/05/16 04:01:10;;;;;;;10.10;4.43;;;8.10;99.90;;;;;;5082860;28;20184;-71
2023/05/16 04:03:37;;;;;;;12.67;4.40;;;8.10;99.90;;;;;;5105958;28;20242;-71
2023/05/16 04:06:03;;;;;;;14.17;3.73;;;8.10;99.90;;;;;;5108614;28;20181;-71
2023/05/16 04:08:30;;;;;;;7.97;4.13;;;8.20;99.90;;;;;;5106967;28;20181;-71
2023/05/16 04:10:55;;;;;;;5.53;4.00;;;8.20;99.90;;;;;;5096940;28;20691;-72
2023/05/16 04:13:21;;;;;;;11.90;4.60;;;8.20;99.90;;;;;;5085375;28;20208;-71
2023/05/16 04:15:47;;;;;;;14.07;4.33;;;8.20;99.90;;;;;;5097366;28;20188;-71
2023/05/16 04:18:12;;;;;;;14.27;5.10;;;8.30;99.90;;;;;;5103527;28;20235;-72
2023/05/16 04:20:38;;;;;;;14.83;4.27;;;8.30;99.90;;;;;;5114630;28;20183;-71
2023/05/16 04:23:04;;;;;;;7.93;4.37;;;8.40;99.90;;;;;;5115155;28;20263;-73
2023/05/16 04:25:30;;;;;;;11.93;4.73;;;8.50;99.90;;;;;;5097542;28;20195;-71
2023/05/16 04:27:56;;;;;;;17.27;4.53;;;8.40;99.90;;;;;;5105742;28;20241;-71
2023/05/16 04:30:21;;;;;;;9.93;4.10;;;8.40;99.90;;;;;;5085202;28;20191;-69
2023/05/16 04:32:47;;;;;;;8.77;4.87;;;8.40;99.90;;;;;;5090049;28;20545;-75
2023/05/16 04:35:13;;;;;;;8.33;4.60;;;8.50;99.90;;;;;;5086175;28;20192;-74
2023/05/16 04:37:38;;;;;;;10.67;3.83;;;8.50;99.90;;;;;;5115730;28;20180;-72
2023/05/16 04:40:06;;;;;;;8.40;3.97;;;8.60;99.90;;;;;;5104057;28;20670;-74
2023/05/16 04:42:32;;;;;;;12.03;4.60;;;8.70;99.90;;;;;;5102624;28;20661;-80
2023/05/16 04:44:57;;;;;;;12.27;4.70;;;8.80;99.90;;;;;;5092056;28;20187;-78
2023/05/16 04:47:23;;;;;;;17.67;5.17;;;8.80;99.90;;;;;;5105623;28;20450;-69
2023/05/16 04:49:49;;;;;;;14.43;5.63;;;8.90;99.90;;;;;;5114714;28;20905;-75
2023/05/16 04:52:14;;;;;;;10.23;4.87;;;9.00;99.90;;;;;;5114470;28;20699;-78
2023/05/16 04:54:40;;;;;;;12.47;5.03;;;9.00;99.90;;;;;;5109978;28;20517;-77
2023/05/16 04:57:06;;;;;;;13.17;5.30;;;9.00;99.90;;;;;;5096888;28;20211;-77
2023/05/16 04:59:32;;;;;;;13.33;5.43;;;9.00;99.90;;;;;;5079190;28;20520;-76
2023/05/16 05:01:57;;;;;;;11.77;5.50;;;9.10;99.90;;;;;;5092866;28;20195;-76
2023/05/16 05:04:23;;;;;;;9.77;5.30;;;9.10;99.90;;;;;;5080223;28;20187;-75
2023/05/16 05:06:49;;;;;;;13.07;6.00;;;9.10;99.90;;;;;;5095344;28;20231;-79
2023/05/16 05:09:16;;;;;;;11.60;4.87;;;9.30;99.90;;;;;;5102743;28;20592;-75
2023/05/16 05:11:41;;;;;;;15.23;4.20;;;9.50;99.90;;;;;;5108830;28;20611;-74
2023/05/16 05:14:07;;;;;;;11.17;3.83;;;9.50;99.90;;;;;;5114299;28;20275;-77
2023/05/16 05:16:33;;;;;;;12.93;3.73;;;9.50;99.90;;;;;;5108570;28;20555;-76
2023/05/16 05:18:59;;;;;;;13.97;5.57;;;9.40;99.90;;;;;;5093465;28;20262;-77
2023/05/16 05:21:25;;;;;;;13.27;3.97;;;9.40;99.90;;;;;;5095638;28;20188;-76
2023/05/16 05:23:51;;;;;;;14.70;3.97;;;9.60;99.90;;;;;;5114568;28;20236;-77
2023/05/16 05:26:17;;;;;;;7.63;3.03;;;9.70;99.90;;;;;;5113636;28;20539;-77
2023/05/16 05:28:43;;;;;;;6.30;3.43;;;9.90;99.90;;;;;;5113927;28;20176;-77
2023/05/16 05:31:08;;;;;;;8.30;3.13;;;10.10;99.90;;;;;;5111473;28;20619;-77
2023/05/16 05:33:34;;;;;;;14.90;3.97;;;10.40;99.90;;;;;;5113014;28;20663;-77
2023/05/16 05:36:00;;;;;;;11.15;6.72;;;10.40;99.90;;;;;;5114329;28;20192;-75
2023/05/16 05:38:25;;;;;;;8.32;3.38;;;10.50;99.90;;;;;;5112277;28;20180;-76
2023/05/16 05:40:51;;;;;;;10.75;4.90;;;10.60;99.90;;;;;;5113455;28;20663;-75
2023/05/16 05:43:17;;;;;;;5.50;3.28;;;10.60;99.90;;;;;;5113651;28;20187;-74
2023/05/16 05:45:43;;;;;;;8.67;3.23;;;10.50;99.90;;;;;;5113902;28;20180;-74
2023/05/16 05:48:10;;;;;;;13.02;4.05;;;10.40;99.90;;;;;;5113321;28;20211;-74
2023/05/16 05:50:36;;;;;;;9.50;3.45;;;10.50;99.90;;;;;;5105827;28;20211;-74
2023/05/16 05:53:02;;;;;;;12.07;3.20;;;10.60;99.90;;;;;;5113153;28;20190;-74
2023/05/16 05:55:28;;;;;;;7.32;3.17;;;10.70;99.90;;;;;;5092769;28;20176;-73
2023/05/16 05:57:53;;;;;;;5.20;3.53;;;10.80;99.90;;;;;;5110020;28;20675;-75
2023/05/16 06:00:19;;;;;;;11.52;2.47;;;10.80;99.90;;;;;;5088046;28;20180;-75
2023/05/16 06:02:46;;;;;;;7.22;3.45;;;10.90;99.90;;;;;;5096012;28;20184;-74
2023/05/16 06:05:11;;;;;;;4.47;2.20;;;10.80;99.90;;;;;;5111982;28;20186;-75
2023/05/16 06:07:37;;;;;;;8.63;3.20;;;10.80;99.90;;;;;;5097045;28;20192;-75
2023/05/16 06:10:04;;;;;;;5.03;2.35;;;10.70;99.90;;;;;;5100148;28;20267;-74
2023/05/16 06:12:30;;;;;;;9.57;2.90;;;10.70;99.90;;;;;;5097138;28;20557;-73
2023/05/16 06:14:56;;;;;;;4.65;2.80;;;10.90;99.90;;;;;;5076717;28;20188;-73
2023/05/16 06:17:21;;;;;;;5.32;2.75;;;11.00;99.90;;;;;;5087622;28;20637;-74
2023/05/16 06:19:47;;;;;;;2.97;2.42;;;11.10;99.90;;;;;;5101253;28;20693;-74
2023/05/16 06:22:13;;;;;;;7.80;2.45;;;11.30;99.90;;;;;;5106643;28;20187;-74
2023/05/16 06:24:39;;;;;;;12.60;2.25;;;11.30;99.90;;;;;;5099037;28;20181;-74
2023/05/16 06:27:05;;;;;;;11.20;2.80;;;11.40;99.90;;;;;;5104643;28;20540;-74
2023/05/16 06:29:31;;;;;;;6.43;3.10;;;11.40;99.90;;;;;;5080119;28;20189;-74
2023/05/16 06:31:57;;;;;;;4.78;1.90;;;11.50;99.90;;;;;;5112335;28;20226;-74
2023/05/16 06:34:26;;;;;;;11.05;2.65;;;11.70;99.90;;;;;;5104613;28;20180;-74
2023/05/16 06:36:55;;;;;;;7.53;2.45;;;12.00;99.90;;;;;;5099300;28;20658;-75
2023/05/16 06:39:21;;;;;;;9.55;2.72;;;12.30;99.90;;;;;;5094981;28;20180;-74
2023/05/16 06:41:46;;;;;;;1.98;1.75;;;12.50;99.90;;;;;;5107221;28;20202;-73
2023/05/16 06:44:12;;;;;;;9.52;2.55;;;12.50;99.90;;;;;;5110955;28;20192;-74
2023/05/16 06:46:38;;;;;;;3.08;1.63;;;12.60;99.90;;;;;;5099677;28;20535;-75
2023/05/16 06:49:03;;;;;;;6.03;2.13;;;12.80;99.90;;;;;;5098784;28;20644;-75
2023/05/16 06:51:30;;;;;;;7.57;2.80;;;12.50;99.90;;;;;;5104516;28;20203;-74
2023/05/16 06:53:56;;;;;;;5.55;1.95;;;12.50;99.90;;;;;;5077672;28;20203;-76
2023/05/16 06:56:22;;;;;;;5.53;2.25;;;12.80;99.90;;;;;;5110648;28;20188;-74
2023/05/16 06:58:48;;;;;;;6.07;2.45;;;13.40;99.90;;;;;;5078019;28;20180;-74
2023/05/16 07:01:15;;;;;;;7.03;2.63;;;14.00;99.90;;;;;;5086546;28;20222;-74
2023/05/16 07:03:40;;;;;;;7.97;2.60;;;14.50;99.90;;;;;;5082480;28;20200;-74
2023/05/16 07:06:06;;;;;;;7.35;2.45;;;15.00;99.90;;;;;;5076630;28;20185;-74
2023/05/16 07:08:34;;;;;;;10.57;2.03;;;15.20;99.90;;;;;;5098774;28;20192;-74
2023/05/16 07:11:00;;;;;;;8.45;1.88;;;15.30;99.90;;;;;;5105756;28;20211;-74
2023/05/16 07:13:26;;;;;;;3.65;2.00;;;15.30;99.90;;;;;;5094925;28;20184;-74
2023/05/16 07:15:51;;;;;;;3.75;1.25;;;15.10;99.90;;;;;;5102552;28;20176;-72
2023/05/16 07:18:17;;;;;;;6.45;1.65;;;15.20;99.90;;;;;;5083767;28;20243;-73
2023/05/16 07:20:43;;;;;;;7.43;1.92;;;15.30;99.90;;;;;;5100752;28;20268;-73
2023/05/16 07:23:09;;;;;;;6.18;1.35;;;15.70;99.90;;;;;;5106507;28;20262;-73
2023/05/16 07:25:35;;;;;;;4.28;1.27;;;15.70;99.90;;;;;;5097558;28;20524;-74
2023/05/16 07:28:01;;;;;;;5.88;1.27;;;15.50;99.90;;;;;;5104424;28;20176;-74
2023/05/16 07:30:27;;;;;;;3.85;1.60;;;15.60;99.90;;;;;;5087632;28;20187;-75
2023/05/16 07:32:52;;;;;;;11.35;1.67;;;15.50;99.90;;;;;;5106134;28;20192;-73
2023/05/16 07:35:18;;;;;;;6.32;1.67;;;15.30;99.90;;;;;;5105139;28;20533;-73
2023/05/16 07:37:44;;;;;;;7.05;2.35;;;15.40;99.90;;;;;;5116168;28;20180;-75
2023/05/16 07:40:10;;;;;;;7.70;1.77;;;15.30;99.90;;;;;;5105979;28;20551;-74
2023/05/16 07:42:36;;;;;;;8.80;1.60;;;15.00;99.90;;;;;;5097381;28;20215;-73
2023/05/16 07:45:02;;;;;;;5.43;2.50;;;14.90;99.90;;;;;;5084012;28;20224;-73
2023/05/16 07:47:28;;;;;;;3.85;1.95;;;14.90;99.90;;;;;;5108470;28;20565;-73
2023/05/16 07:49:53;;;;;;;6.10;1.92;;;15.00;99.90;;;;;;5091679;28;20450;-73
2023/05/16 07:52:19;;;;;;;9.65;2.85;;;14.70;99.90;;;;;;5101032;28;20200;-75
2023/05/16 07:54:48;;;;;;;5.80;1.80;;;14.40;99.90;;;;;;5089692;28;20167;-77
2023/05/16 07:57:14;;;;;;;7.05;2.15;;;14.20;99.90;;;;;;5092764;28;20649;-73
2023/05/16 07:59:40;;;;;;;2.60;1.17;;;13.80;99.90;;;;;;5098439;28;20669;-74
2023/05/16 08:02:06;;;;;;;3.97;2.10;;;14.00;99.90;;;;;;5107759;28;20599;-73
2023/05/16 08:04:32;;;;;;;5.30;1.63;;;14.40;99.90;;;;;;5101633;28;20244;-74
2023/05/16 08:06:58;;;;;;;12.18;1.88;;;15.00;99.90;;;;;;5110954;28;20218;-73
2023/05/16 08:09:23;;;;;;;8.65;1.88;;;16.20;99.90;;;;;;5107974;28;20184;-73
2023/05/16 08:11:49;;;;;;;4.10;1.30;;;16.90;99.90;;;;;;5098003;28;20204;-73
2023/05/16 08:14:15;;;;;;;3.72;1.10;;;16.70;99.90;;;;;;5079968;28;20177;-74
2023/05/16 08:16:40;;;;;;;6.90;2.75;;;17.10;99.90;;;;;;5109223;28;20185;-74
2023/05/16 08:19:06;;;;;;;7.78;1.85;;;17.20;99.90;;;;;;5072673;28;20234;-73
2023/05/16 08:21:32;;;;;;;4.18;1.58;;;16.70;99.90;;;;;;5100667;28;20241;-73
2023/05/16 08:23:58;;;;;;;5.38;1.88;;;16.20;99.90;;;;;;5088062;28;20180;-73
2023/05/16 08:26:24;;;;;;;5.10;1.30;;;15.80;99.90;;;;;;5106646;28;20185;-73
2023/05/16 08:28:49;;;;;;;1.35;1.25;;;15.30;99.90;;;;;;5086340;28;20629;-73
2023/05/16 08:31:15;;;;;;;2.85;1.90;;;15.40;99.90;;;;;;5080021;28;20208;-72
2023/05/16 08:33:41;;;;;;;2.10;1.20;;;16.50;99.90;;;;;;5108946;28;20184;-74
2023/05/16 08:36:09;;;;;;;3.63;1.08;;;18.00;99.90;;;;;;5098899;28;20189;-77
2023/05/16 08:38:35;;;;;;;6.90;1.58;;;19.20;99.90;;;;;;5094580;28;20266;-75
2023/05/16 08:41:00;;;;;;;1.65;0.75;;;19.30;99.90;;;;;;5094654;28;20267;-74
2023/05/16 08:43:26;;;;;;;1.75;1.15;;;19.80;99.90;;;;;;5103205;28;20181;-73
2023/05/16 08:45:52;;;;;;;3.83;1.33;;;20.80;99.90;;;;;;5111146;28;20196;-75
2023/05/16 08:48:22;;;;;;;2.38;0.85;;;20.30;99.90;;;;;;5105484;28;20175;-72
2023/05/16 08:50:48;;;;;;;1.27;0.80;;;20.00;99.90;;;;;;5100342;28;20201;-74
2023/05/16 08:53:20;;;;;;;1.17;0.80;;;19.60;99.90;;;;;;5105959;28;20190;-73
2023/05/16 08:55:48;;;;;;;1.30;0.82;;;20.70;99.90;;;;;;5110933;28;20173;-72
2023/05/16 08:58:14;;;;;;;1.98;1.10;;;20.70;99.90;;;;;;5106349;28;20188;-72
2023/05/16 09:00:40;;;;;;;4.03;1.10;;;21.20;99.90;;;;;;5086987;28;20243;-72
2023/05/16 09:03:06;;;;;;;2.13;1.13;;;22.30;99.90;;;;;;5105674;28;20187;-73
2023/05/16 09:05:32;;;;;;;4.13;1.65;;;22.90;99.90;;;;;;5106104;28;20184;-73
2023/05/16 09:07:59;;;;;;;6.30;1.27;;;22.30;99.90;;;;;;5104668;28;20188;-73
2023/05/16 09:10:24;;;;;;;7.55;1.25;;;21.70;99.90;;;;;;5096874;28;20533;-74
2023/05/16 09:12:50;;;;;;;2.72;1.02;;;22.20;99.90;;;;;;5088085;28;20187;-73
2023/05/16 09:15:18;;;;;;;5.60;1.25;;;22.70;99.90;;;;;;5105799;28;20172;-73
2023/05/16 09:17:46;;;;;;;4.60;1.00;;;21.50;99.90;;;;;;5103491;28;20188;-73
2023/05/16 09:20:16;;;;;;;4.78;1.10;;;21.20;99.90;;;;;;5078494;28;20180;-72
2023/05/16 09:22:55;;;;;;;3.42;0.85;;;21.30;99.90;;;;;;5082835;28;20176;-72
2023/05/16 09:25:22;;;;;;;1.33;1.15;;;20.60;99.90;;;;;;5108851;28;20229;-74
2023/05/16 09:27:55;;;;;;;3.83;1.58;;;20.20;99.90;;;;;;5105981;28;20191;-72
2023/05/16 09:30:29;;;;;;;8.68;1.75;;;19.70;99.90;;;;;;5098498;28;20565;-75
2023/05/16 09:32:55;;;;;;;6.20;1.40;;;19.20;99.90;;;;;;5089270;28;20279;-74
2023/05/16 09:35:22;;;;;;;2.35;1.83;;;19.10;99.90;;;;;;5080304;28;20259;-74
2023/05/16 09:37:49;;;;;;;2.17;1.00;;;18.70;99.90;;;;;;5071975;28;20177;-73
2023/05/16 09:40:15;;;;;;;1.92;1.00;;;18.00;99.90;;;;;;5079444;28;20584;-72
2023/05/16 09:42:42;;;;;;;1.58;1.17;;;17.40;99.90;;;;;;5094997;28;20173;-72
2023/05/16 09:45:14;;;;;;;1.45;1.20;;;16.90;99.90;;;;;;5105862;28;20177;-72
2023/05/16 09:47:45;;;;;;;2.63;1.30;;;16.50;99.90;;;;;;5107871;28;20221;-74
2023/05/16 09:50:14;;;;;;;5.20;1.48;;;16.40;99.90;;;;;;5099245;28;20179;-74
2023/05/16 09:52:42;;;;;;;3.20;1.77;;;16.40;99.90;;;;;;5099292;28;20697;-74
2023/05/16 09:55:08;;;;;;;5.97;1.67;;;16.60;99.90;;;;;;5082377;28;20188;-73
2023/05/16 09:57:40;;;;;;;3.72;1.75;;;16.70;99.90;;;;;;5107685;28;20219;-74
2023/05/16 10:00:09;;;;;;;2.97;1.90;;;16.50;99.90;;;;;;5112213;28;20180;-74
2023/05/16 10:02:37;;;;;;;2.72;1.30;;;16.60;99.90;;;;;;5104637;28;20198;-74
2023/05/16 10:05:02;;;;;;;2.08;1.27;;;16.30;99.90;;;;;;5096249;28;20184;-72
2023/05/16 10:07:32;;;;;;;2.55;1.85;;;16.40;99.90;;;;;;5094906;28;20264;-73
2023/05/16 10:10:00;;;;;;;4.32;1.13;;;16.70;99.90;;;;;;5102719;28;20210;-74
2023/05/16 10:12:30;;;;;;;1.75;1.27;;;16.50;99.90;;;;;;5104297;28;20232;-73
2023/05/16 10:14:57;;;;;;;1.02;0.82;;;16.40;99.90;;;;;;5109465;28;20211;-73
2023/05/16 10:17:24;;;;;;;2.97;1.00;;;16.50;99.90;;;;;;5105494;28;20180;-75
2023/05/16 10:19:51;;;;;;;3.03;1.23;;;16.30;99.90;;;;;;5100426;28;20240;-71
2023/05/16 10:22:20;;;;;;;0.95;0.95;;;16.30;99.90;;;;;;5101377;28;20250;-75
2023/05/16 10:25:06;;;;;;;4.43;2.10;;;16.30;99.90;;;;;;5090829;28;20203;-75
2023/05/16 10:27:32;;;;;;;2.40;1.65;;;16.30;99.90;;;;;;5096898;28;20193;-74
2023/05/16 10:29:59;;;;;;;1.63;1.02;;;16.40;99.90;;;;;;5089187;28;20211;-72
2023/05/16 10:32:26;;;;;;;2.05;1.00;;;16.70;99.90;;;;;;5085115;28;20216;-72
2023/05/16 10:34:55;;;;;;;5.85;1.60;;;16.90;99.90;;;;;;5107233;28;20223;-73
2023/05/16 10:37:22;;;;;;;2.28;2.03;;;17.00;99.90;;;;;;5104003;28;20972;-74
2023/05/16 10:39:48;;;;;;;3.80;1.90;;;17.00;99.90;;;;;;5100849;28;20187;-73
2023/05/16 10:42:17;;;;;;;2.42;1.10;;;16.90;99.90;;;;;;5107946;28;20287;-74
2023/05/16 10:44:42;;;;;;;7.30;1.33;;;16.80;99.90;;;;;;5111964;28;20248;-73
2023/05/16 10:47:08;;;;;;;3.03;1.05;;;16.60;99.90;;;;;;5093414;28;20622;-73
2023/05/16 10:49:39;;;;;;;3.17;1.42;;;16.50;99.90;;;;;;5099904;28;20191;-74
2023/05/16 10:52:12;;;;;;;3.60;1.13;;;16.50;99.90;;;;;;5105947;28;20256;-72
2023/05/16 10:54:42;;;;;;;5.65;1.85;;;16.30;99.90;;;;;;5098846;28;20240;-74
2023/05/16 10:57:11;;;;;;;2.63;1.25;;;16.50;99.90;;;;;;5108578;28;20549;-72
2023/05/16 10:59:42;;;;;;;2.20;1.40;;;16.70;99.90;;;;;;5103646;28;20176;-72
2023/05/16 11:02:24;;;;;;;0.98;0.95;;;17.00;99.90;;;;;;5084114;28;20188;-72
2023/05/16 11:04:51;;;;;;;3.50;0.98;;;17.20;99.90;;;;;;5103184;28;20660;-73
2023/05/16 11:07:18;;;;;;;2.80;1.35;;;17.00;99.90;;;;;;5107197;28;20594;-75
2023/05/16 11:09:45;;;;;;;1.58;1.00;;;17.00;99.90;;;;;;5097766;28;20177;-73
2023/05/16 11:12:12;;;;;;;4.03;0.85;;;16.70;99.90;;;;;;5084384;28;20672;-72
2023/05/16 11:14:41;;;;;;;8.40;1.50;;;16.60;99.90;;;;;;5089727;28;20545;-73
2023/05/16 11:17:20;;;;;;;2.20;1.40;;;16.40;99.90;;;;;;5109276;28;20183;-72
2023/05/16 11:19:58;;;;;;;0.65;0.65;;;16.70;99.90;;;;;;5091483;28;20255;-72
2023/05/16 11:22:31;;;;;;;2.30;1.30;;;16.70;99.90;;;;;;5106632;28;20266;-72
2023/05/16 11:25:07;;;;;;;3.45;1.67;;;17.00;99.90;;;;;;5106159;28;20549;-72
2023/05/16 11:27:46;;;;;;;6.28;1.45;;;17.00;99.90;;;;;;5098890;28;20546;-72
2023/05/16 11:30:18;;;;;;;2.25;1.35;;;17.10;99.90;;;;;;5104156;28;20692;-73
2023/05/16 11:32:45;;;;;;;1.70;1.30;;;17.00;99.90;;;;;;5103965;28;20303;-73
2023/05/16 11:35:14;;;;;;;1.55;0.95;;;16.80;99.90;;;;;;5103783;28;20187;-72
2023/05/16 11:37:39;;;;;;;3.85;0.80;;;16.70;99.90;;;;;;5106392;28;20191;-73
2023/05/16 11:40:07;;;;;;;4.93;1.25;;;16.70;99.90;;;;;;5102919;28;20547;-72
2023/05/16 11:42:43;;;;;;;7.15;1.40;;;16.70;99.90;;;;;;5078843;28;20185;-72
2023/05/16 11:45:11;;;;;;;1.85;1.42;;;16.80;99.90;;;;;;5102170;28;20187;-72
2023/05/16 11:47:38;;;;;;;3.50;1.13;;;16.90;99.90;;;;;;5098579;28;20176;-74
2023/05/16 11:50:11;;;;;;;4.00;1.08;;;17.00;99.90;;;;;;5097264;28;20263;-74
2023/05/16 11:52:38;;;;;;;0.80;0.80;;;17.10;99.90;;;;;;5109695;28;20200;-73
2023/05/16 11:55:05;;;;;;;1.08;1.05;;;16.80;99.90;;;;;;5111977;28;20184;-72
2023/05/16 11:57:32;;;;;;;2.53;1.13;;;16.60;99.90;;;;;;5110186;28;20185;-73
2023/05/16 12:00:10;;;;;;;1.08;0.98;;;16.90;99.90;;;;;;5100053;28;20184;-74
2023/05/16 12:02:35;;;;;;;7.53;1.42;;;17.10;99.90;;;;;;5078889;28;20196;-74
2023/05/16 12:05:08;;;;;;;1.98;1.17;;;17.10;99.90;;;;;;5069720;28;20549;-75
2023/05/16 12:07:37;;;;;;;3.83;1.95;;;16.80;99.90;;;;;;5096246;28;20183;-74
2023/05/16 12:10:06;;;;;;;1.17;0.70;;;16.60;99.90;;;;;;5114451;28;20183;-73
2023/05/16 12:12:32;;;;;;;7.28;1.42;;;16.70;99.90;;;;;;5103561;28;20288;-73
2023/05/16 12:14:58;;;;;;;3.92;1.15;;;16.70;99.90;;;;;;5108434;28;20192;-73
2023/05/16 12:17:24;;;;;;;3.03;0.82;;;16.70;99.90;;;;;;5103959;28;20210;-72
2023/05/16 12:19:50;;;;;;;0.95;0.88;;;17.00;99.90;;;;;;5080171;28;20283;-73
2023/05/16 12:22:19;;;;;;;1.15;1.08;;;17.20;99.90;;;;;;5098491;28;20187;-73
2023/05/16 12:24:45;;;;;;;4.72;1.05;;;17.60;99.90;;;;;;5106107;28;20700;-72
2023/05/16 12:27:11;;;;;;;2.15;1.02;;;17.70;99.90;;;;;;5105477;28;20275;-72
2023/05/16 12:29:37;;;;;;;2.00;1.00;;;17.60;99.90;;;;;;5099770;28;20534;-73
2023/05/16 12:32:06;;;;;;;2.30;1.02;;;17.60;99.90;;;;;;5106086;28;20555;-73
2023/05/16 12:34:32;;;;;;;0.90;0.90;;;17.80;99.90;;;;;;5115285;28;20223;-74
2023/05/16 12:36:58;;;;;;;3.15;1.23;;;17.80;99.90;;;;;;5099090;28;20231;-73
2023/05/16 12:39:24;;;;;;;2.63;0.80;;;17.60;99.90;;;;;;5106882;28;20267;-73
2023/05/16 12:41:50;;;;;;;3.03;0.75;;;17.60;99.90;;;;;;5085537;28;20263;-73
2023/05/16 12:44:18;;;;;;;1.77;0.85;;;17.50;99.90;;;;;;5096614;28;20207;-72
2023/05/16 12:46:50;;;;;;;1.20;0.70;;;17.30;99.90;;;;;;5106694;28;20197;-72
2023/05/16 12:49:19;;;;;;;1.30;0.75;;;17.30;99.90;;;;;;5103786;28;20195;-74